Time;durP1;ratioP1;P1;durP2;ratioP2;P2;SDS_P1;SDS_P2;PMS_P1;PMS_P2;Temp;Humidity;BMP_temperature;BMP_pressure;BME280_temperature;BME280_humidity;BME280_pressure;Samples;Min_cycle;Max_cycle;Signal;HPM_P1;HPM_P2
2024/01/29 00:02:26;;;;;;;15.30;10.30;;;;;;;-2.20;80.19;101850.84;105862;1256;59329;-76
2024/01/29 00:04:53;;;;;;;17.40;11.40;;;;;;;-2.25;80.26;101850.42;105792;1254;71699;-75
2024/01/29 00:07:21;;;;;;;15.20;10.00;;;;;;;-2.30;80.13;101851.07;105990;1258;68891;-77
2024/01/29 00:09:49;;;;;;;15.10;10.20;;;;;;;-2.37;79.78;101849.12;106004;1256;71406;-77
2024/01/29 00:12:17;;;;;;;16.60;10.40;;;;;;;-2.39;79.83;101852.81;105943;1255;59743;-77
2024/01/29 00:14:45;;;;;;;15.50;10.20;;;;;;;-2.34;79.57;101853.77;105942;1264;59628;-77
2024/01/29 00:17:12;;;;;;;18.50;11.70;;;;;;;-2.36;79.86;101849.81;106623;1253;71678;-77
2024/01/29 00:19:39;;;;;;;18.20;11.70;;;;;;;-2.41;79.92;101850.08;107215;1254;68707;-77
2024/01/29 00:22:07;;;;;;;16.80;11.60;;;;;;;-2.46;79.88;101850.37;107075;1253;71380;-75
2024/01/29 00:24:35;;;;;;;19.00;12.60;;;;;;;-2.52;80.15;101854.48;106350;1253;59719;-77
2024/01/29 00:27:02;;;;;;;18.40;12.60;;;;;;;-2.59;80.05;101854.10;106203;1254;60019;-76
2024/01/29 00:29:30;;;;;;;20.10;13.40;;;;;;;-2.66;80.14;101855.98;105885;1254;72623;-77
2024/01/29 00:31:58;;;;;;;18.60;12.40;;;;;;;-2.70;80.16;101854.70;105841;1254;69081;-77
2024/01/29 00:34:25;;;;;;;18.50;11.60;;;;;;;-2.66;80.08;101852.52;105820;1254;71385;-76
2024/01/29 00:36:53;;;;;;;18.50;11.60;;;;;;;-2.58;79.93;101852.35;105825;1254;59676;-78
2024/01/29 00:39:21;;;;;;;18.40;11.90;;;;;;;-2.58;80.08;101855.83;105865;1254;59657;-76
2024/01/29 00:41:48;;;;;;;19.30;12.70;;;;;;;-2.60;80.46;101857.25;105905;1259;71987;-77
2024/01/29 00:44:17;;;;;;;17.20;12.80;;;;;;;-2.63;80.72;101858.70;106049;1254;68817;-76
2024/01/29 00:46:44;;;;;;;20.30;14.40;;;;;;;-2.66;80.64;101858.94;105907;1256;72696;-77
2024/01/29 00:49:12;;;;;;;22.00;14.10;;;;;;;-2.71;80.55;101857.48;105821;1254;59535;-76
2024/01/29 00:51:40;;;;;;;24.30;15.30;;;;;;;-2.77;80.62;101855.52;105784;1256;60115;-79
2024/01/29 00:54:07;;;;;;;25.80;15.00;;;;;;;-2.81;80.54;101854.56;105815;1254;73516;-76
2024/01/29 00:56:35;;;;;;;22.10;15.30;;;;;;;-2.77;80.51;101858.13;105729;1259;67932;-76
2024/01/29 00:59:02;;;;;;;19.90;14.80;;;;;;;-2.71;80.33;101853.14;105787;1254;72366;-76
2024/01/29 01:01:30;;;;;;;24.60;16.60;;;;;;;-2.73;80.49;101857.70;105938;1256;59870;-77
2024/01/29 01:03:57;;;;;;;24.60;15.00;;;;;;;-2.79;80.77;101864.39;105912;1257;59269;-77
2024/01/29 01:06:25;;;;;;;28.90;16.90;;;;;;;-2.83;80.98;101869.52;105919;1253;71752;-77
2024/01/29 01:08:53;;;;;;;28.30;17.10;;;;;;;-2.86;81.32;101873.56;105970;1254;70933;-77
2024/01/29 01:11:20;;;;;;;33.00;17.60;;;;;;;-2.92;81.15;101875.41;106026;1256;72700;-76
2024/01/29 01:13:49;;;;;;;29.90;16.60;;;;;;;-2.96;81.22;101878.95;106786;1254;59599;-77
2024/01/29 01:16:17;;;;;;;27.00;15.40;;;;;;;-2.89;81.15;101876.56;108752;1252;59517;-73
2024/01/29 01:18:44;;;;;;;30.10;15.60;;;;;;;-2.81;80.89;101874.67;108719;1253;71961;-76
2024/01/29 01:21:12;;;;;;;29.40;16.00;;;;;;;-2.82;80.83;101875.91;108246;1254;70262;-76
2024/01/29 01:23:39;;;;;;;38.30;18.70;;;;;;;-2.84;81.11;101873.16;107937;1254;72716;-74
2024/01/29 01:26:07;;;;;;;43.20;19.80;;;;;;;-2.84;81.52;101867.45;109043;1253;59548;-75
2024/01/29 01:28:34;;;;;;;46.70;20.60;;;;;;;-2.85;81.30;101866.77;107994;1254;58723;-76
2024/01/29 01:31:02;;;;;;;38.60;18.70;;;;;;;-2.86;81.30;101873.56;105931;1254;73101;-75
2024/01/29 01:33:29;;;;;;;50.10;20.10;;;;;;;-2.90;81.16;101879.20;106018;1254;70077;-75
2024/01/29 01:35:57;;;;;;;53.70;21.50;;;;;;;-2.86;81.10;101885.88;105956;1259;72628;-73
2024/01/29 01:38:24;;;;;;;59.10;22.70;;;;;;;-2.80;80.67;101886.61;106041;1258;60444;-74
2024/01/29 01:40:52;;;;;;;48.10;21.30;;;;;;;-2.82;80.79;101887.69;106157;1256;60360;-75
2024/01/29 01:43:21;;;;;;;50.20;21.00;;;;;;;-2.86;81.04;101882.58;105925;1254;72958;-75
2024/01/29 01:46:04;;;;;;;51.90;20.90;;;;;;;-2.92;80.92;101885.13;106008;1253;69947;-74
2024/01/29 01:48:33;;;;;;;47.80;20.50;;;;;;;-2.98;81.03;101884.73;105913;1254;72641;-75
2024/01/29 01:51:01;;;;;;;45.80;20.40;;;;;;;-3.02;81.29;101884.09;105978;1254;60462;-75
2024/01/29 01:53:30;;;;;;;49.00;20.40;;;;;;;-3.06;81.32;101883.48;105977;1254;60530;-74
2024/01/29 01:55:58;;;;;;;40.30;17.60;;;;;;;-3.03;81.17;101880.29;106632;1253;73879;-75
2024/01/29 01:58:29;;;;;;;40.90;18.50;;;;;;;-2.95;80.85;101879.11;105930;1254;70282;-74
2024/01/29 02:00:56;;;;;;;41.30;18.50;;;;;;;-2.96;80.93;101879.13;105680;1261;71251;-74
2024/01/29 02:03:27;;;;;;;40.60;18.60;;;;;;;-3.02;81.02;101891.55;105820;1254;60402;-75
2024/01/29 02:05:55;;;;;;;42.50;18.80;;;;;;;-3.06;81.44;101901.33;105868;1254;60446;-74
2024/01/29 02:08:23;;;;;;;40.10;19.20;;;;;;;-3.09;81.62;101901.56;106663;1254;73881;-75
2024/01/29 02:10:51;;;;;;;34.40;19.00;;;;;;;-3.13;81.54;101899.73;106978;1254;68747;-74
2024/01/29 02:13:18;;;;;;;33.00;18.10;;;;;;;-3.19;81.30;101903.29;106763;1258;72454;-75
2024/01/29 02:15:46;;;;;;;29.90;16.80;;;;;;;-3.16;81.35;101908.95;108265;1258;59617;-75
2024/01/29 02:18:13;;;;;;;37.60;18.60;;;;;;;-3.09;81.25;101909.38;108247;1254;59373;-75
2024/01/29 02:20:41;;;;;;;33.50;19.40;;;;;;;-3.11;81.20;101911.46;106514;1259;73911;-74
2024/01/29 02:23:08;;;;;;;37.10;19.00;;;;;;;-3.17;81.57;101917.83;106115;1254;68715;-75
2024/01/29 02:25:36;;;;;;;38.60;20.10;;;;;;;-3.21;81.75;101918.94;105922;1253;72493;-75
2024/01/29 02:28:04;;;;;;;36.10;19.90;;;;;;;-3.28;81.69;101923.04;105865;1256;60412;-74
2024/01/29 02:30:31;;;;;;;40.80;19.40;;;;;;;-3.38;81.52;101924.94;105863;1256;60385;-75
2024/01/29 02:32:59;;;;;;;36.40;19.00;;;;;;;-3.46;81.98;101926.45;105859;1255;73690;-75
2024/01/29 02:35:27;;;;;;;39.60;18.50;;;;;;;-3.44;81.90;101927.65;105811;1254;70183;-75
2024/01/29 02:37:54;;;;;;;35.60;18.00;;;;;;;-3.38;81.86;101924.95;105790;1254;71277;-76
2024/01/29 02:40:22;;;;;;;32.50;18.20;;;;;;;-3.41;81.84;101929.15;105822;1254;60543;-75
2024/01/29 02:42:49;;;;;;;30.70;18.30;;;;;;;-3.52;82.04;101928.27;105839;1254;60582;-75
2024/01/29 02:45:17;;;;;;;36.50;18.80;;;;;;;-3.60;82.30;101928.77;105709;1254;73449;-76
2024/01/29 02:47:44;;;;;;;36.20;22.80;;;;;;;-3.66;82.65;101928.84;105788;1260;67850;-75
2024/01/29 02:50:12;;;;;;;37.20;21.70;;;;;;;-3.71;82.69;101928.41;105840;1256;70967;-76
2024/01/29 02:52:40;;;;;;;34.80;18.70;;;;;;;-3.80;83.03;101931.30;105926;1254;60896;-76
2024/01/29 02:55:07;;;;;;;33.50;18.10;;;;;;;-3.78;83.00;101933.19;105873;1254;60338;-75
2024/01/29 02:57:35;;;;;;;28.30;16.90;;;;;;;-3.69;82.97;101938.60;105782;1254;72567;-76
2024/01/29 03:00:04;;;;;;;28.90;17.30;;;;;;;-3.68;83.10;101941.36;105669;1259;71206;-77
2024/01/29 03:02:32;;;;;;;28.80;17.50;;;;;;;-3.71;83.72;101947.10;105887;1253;72439;-75
2024/01/29 03:05:00;;;;;;;29.40;17.80;;;;;;;-3.70;83.90;101951.23;106187;1254;60467;-75
2024/01/29 03:07:27;;;;;;;40.20;23.60;;;;;;;-3.71;84.05;101951.09;106244;1256;60338;-75
2024/01/29 03:09:54;;;;;;;33.00;19.40;;;;;;;-3.76;83.98;101947.17;106492;1256;72378;-76
2024/01/29 03:12:22;;;;;;;31.30;19.10;;;;;;;-3.81;83.89;101940.48;106866;1254;68863;-76
2024/01/29 03:14:50;;;;;;;27.20;17.20;;;;;;;-3.77;83.77;101943.05;107090;1253;73419;-77
2024/01/29 03:17:18;;;;;;;25.30;16.10;;;;;;;-3.70;83.37;101945.55;108382;1256;59201;-76
2024/01/29 03:19:45;;;;;;;28.20;17.10;;;;;;;-3.76;83.28;101946.49;107300;1258;60367;-78
2024/01/29 03:22:13;;;;;;;25.20;16.50;;;;;;;-3.83;83.55;101945.38;107095;1259;72770;-78
2024/01/29 03:24:40;;;;;;;28.30;17.80;;;;;;;-3.89;83.85;101944.77;106306;1254;68694;-75
2024/01/29 03:27:08;;;;;;;31.10;19.10;;;;;;;-3.94;84.06;101947.95;106002;1254;72504;-76
2024/01/29 03:29:35;;;;;;;26.30;18.00;;;;;;;-3.98;84.21;101951.48;106072;1254;60552;-74
2024/01/29 03:32:03;;;;;;;27.50;16.60;;;;;;;-4.01;84.44;101954.63;105861;1255;60419;-75
2024/01/29 03:34:31;;;;;;;27.30;17.50;;;;;;;-3.95;84.38;101957.48;105911;1258;73772;-76
2024/01/29 03:36:58;;;;;;;22.40;15.10;;;;;;;-3.85;84.09;101956.15;105807;1259;69158;-76
2024/01/29 03:39:26;;;;;;;25.50;15.70;;;;;;;-3.84;84.14;101958.90;105971;1255;72306;-76
2024/01/29 03:41:54;;;;;;;27.50;16.60;;;;;;;-3.90;84.30;101961.23;105816;1254;60446;-76
2024/01/29 03:44:22;;;;;;;26.30;16.60;;;;;;;-3.97;84.52;101959.92;105934;1253;60633;-75
2024/01/29 03:46:49;;;;;;;29.60;18.70;;;;;;;-4.03;84.70;101957.08;105778;1254;72649;-76
2024/01/29 03:49:17;;;;;;;25.70;17.00;;;;;;;-4.09;84.83;101956.64;105781;1254;69251;-76
2024/01/29 03:51:45;;;;;;;294.90;173.70;;;;;;;-4.15;85.00;101957.41;105798;1254;72678;-73
2024/01/29 03:54:12;;;;;;;50.20;28.60;;;;;;;-4.13;84.81;101954.10;105779;1253;60444;-73
2024/01/29 03:56:40;;;;;;;30.50;19.10;;;;;;;-4.06;84.82;101953.64;105759;1254;60614;-74
2024/01/29 03:59:11;;;;;;;23.70;15.90;;;;;;;-4.02;85.26;101958.11;105731;1259;74018;-73
2024/01/29 04:01:38;;;;;;;29.60;18.60;;;;;;;-3.98;85.90;101957.36;105936;1259;70148;-74
2024/01/29 04:04:10;;;;;;;29.40;18.40;;;;;;;-3.96;86.15;101953.17;105868;1254;72677;-74
2024/01/29 04:06:39;;;;;;;30.80;20.40;;;;;;;-3.97;86.17;101958.56;105975;1254;60527;-74
2024/01/29 04:09:12;;;;;;;31.10;19.50;;;;;;;-4.00;86.16;101960.33;106344;1254;60424;-74
2024/01/29 04:11:40;;;;;;;30.50;19.50;;;;;;;-4.00;86.30;101962.06;108093;1254;73868;-75
2024/01/29 04:14:08;;;;;;;29.30;17.80;;;;;;;-3.88;86.10;101957.39;109108;1254;69013;-74
2024/01/29 04:16:36;;;;;;;27.40;18.00;;;;;;;-3.73;85.90;101956.48;107549;1257;71414;-75
2024/01/29 04:19:04;;;;;;;29.20;18.50;;;;;;;-3.70;85.69;101961.30;105760;1256;60623;-73
2024/01/29 04:21:31;;;;;;;33.40;19.70;;;;;;;-3.73;85.64;101958.40;105805;1259;60412;-75
2024/01/29 04:23:59;;;;;;;26.30;18.70;;;;;;;-3.76;85.88;101959.13;105821;1254;72573;-75
2024/01/29 04:26:26;;;;;;;31.30;19.30;;;;;;;-3.78;86.09;101962.79;105803;1259;70692;-74
2024/01/29 04:28:54;;;;;;;64.10;36.20;;;;;;;-3.78;86.20;101970.42;105708;1254;72708;-73
2024/01/29 04:31:21;;;;;;;30.80;18.40;;;;;;;-3.81;86.05;101975.13;105900;1254;60527;-75
2024/01/29 04:33:49;;;;;;;29.00;18.00;;;;;;;-3.75;85.87;101980.23;105851;1256;60351;-75
2024/01/29 04:36:16;;;;;;;27.90;17.70;;;;;;;-3.66;85.54;101986.17;105665;1254;73898;-74
2024/01/29 04:38:44;;;;;;;31.40;19.40;;;;;;;-3.66;85.51;101991.90;105753;1254;67892;-75
2024/01/29 04:41:21;;;;;;;32.80;19.70;;;;;;;-3.72;85.58;101988.86;106022;1257;72636;-74
2024/01/29 04:43:48;;;;;;;28.60;18.70;;;;;;;-3.78;85.91;101991.19;105722;1254;60542;-74
2024/01/29 04:46:16;;;;;;;33.20;19.80;;;;;;;-3.81;86.22;101991.05;105754;1254;60622;-73
2024/01/29 04:48:43;;;;;;;32.10;19.80;;;;;;;-3.81;86.69;101994.34;105804;1253;73832;-74
2024/01/29 04:51:11;;;;;;;28.60;18.60;;;;;;;-3.76;87.01;101992.73;105910;1254;69950;-74
2024/01/29 04:53:39;;;;;;;27.90;17.50;;;;;;;-3.62;86.88;101994.78;105881;1254;71678;-73
2024/01/29 04:56:07;;;;;;;31.30;18.00;;;;;;;-3.45;86.43;101997.84;106076;1254;60494;-74
2024/01/29 04:58:35;;;;;;;27.70;17.70;;;;;;;-3.44;86.23;101999.55;106153;1253;60056;-75
2024/01/29 05:01:03;;;;;;;29.40;18.80;;;;;;;-3.47;86.36;101996.81;106042;1259;73832;-74
2024/01/29 05:03:30;;;;;;;28.90;18.50;;;;;;;-3.48;86.43;101997.69;106172;1256;68732;-75
2024/01/29 05:05:58;;;;;;;31.80;19.00;;;;;;;-3.47;86.61;101995.07;106360;1254;72504;-74
2024/01/29 05:08:25;;;;;;;33.10;19.50;;;;;;;-3.44;86.86;101992.61;107172;1254;59109;-75
2024/01/29 05:10:53;;;;;;;30.80;18.40;;;;;;;-3.42;86.84;101995.34;107791;1254;60431;-73
2024/01/29 05:13:21;;;;;;;32.70;18.50;;;;;;;-3.30;86.46;101998.11;108344;1254;72747;-75
2024/01/29 05:15:48;;;;;;;32.50;18.00;;;;;;;-3.22;85.48;101999.36;107216;1255;70355;-76
2024/01/29 05:18:16;;;;;;;30.60;19.60;;;;;;;-3.23;85.52;102000.08;105967;1260;71396;-75
2024/01/29 05:20:43;;;;;;;32.20;19.80;;;;;;;-3.24;85.95;101991.27;106546;1254;60526;-75
2024/01/29 05:23:11;;;;;;;38.90;22.10;;;;;;;-3.24;86.23;101994.90;107213;1254;59266;-74
2024/01/29 05:25:38;;;;;;;32.60;22.20;;;;;;;-3.26;85.92;101999.09;106687;1256;72547;-74
2024/01/29 05:28:06;;;;;;;40.70;23.30;;;;;;;-3.35;85.27;102001.64;106439;1254;68756;-74
2024/01/29 05:30:34;;;;;;;37.90;22.00;;;;;;;-3.47;85.07;102011.54;106552;1254;72671;-74
2024/01/29 05:33:01;;;;;;;38.30;23.00;;;;;;;-3.43;84.96;102020.14;106053;1258;60549;-72
2024/01/29 05:35:49;;;;;;;41.10;22.00;;;;;;;-3.33;84.76;102016.89;105751;1254;60645;-74
2024/01/29 05:38:17;;;;;;;40.10;23.40;;;;;;;-3.39;84.50;102019.38;106309;1260;73984;-77
2024/01/29 05:40:44;;;;;;;38.30;22.90;;;;;;;-3.50;84.36;102024.23;107101;1256;68275;-76
2024/01/29 05:43:12;;;;;;;44.20;25.10;;;;;;;-3.63;84.86;102023.71;106725;1254;72694;-75
2024/01/29 05:45:39;;;;;;;42.60;25.50;;;;;;;-3.67;85.29;102022.21;105840;1255;60516;-77
2024/01/29 05:48:08;;;;;;;45.60;25.30;;;;;;;-3.67;85.70;102021.35;105746;1260;60451;-78
2024/01/29 05:50:36;;;;;;;46.80;23.60;;;;;;;-3.65;86.07;102018.73;105887;1258;73790;-76
2024/01/29 05:53:04;;;;;;;44.20;24.00;;;;;;;-3.54;85.98;102030.17;105908;1254;70112;-76
2024/01/29 05:55:31;;;;;;;47.20;23.80;;;;;;;-3.41;85.49;102032.23;105823;1259;72621;-76
2024/01/29 05:57:58;;;;;;;41.50;24.30;;;;;;;-3.43;85.30;102031.75;105877;1255;60414;-75
2024/01/29 06:00:26;;;;;;;45.40;25.40;;;;;;;-3.49;85.54;102028.73;106107;1254;60085;-74
2024/01/29 06:02:54;;;;;;;47.60;25.00;;;;;;;-3.49;86.14;102035.98;106000;1256;72258;-76
2024/01/29 06:05:22;;;;;;;52.10;29.40;;;;;;;-3.47;86.20;102037.70;106124;1254;70304;-74
2024/01/29 06:07:51;;;;;;;50.90;27.30;;;;;;;-3.47;86.08;102045.31;106521;1254;72886;-74
2024/01/29 06:10:19;;;;;;;47.00;26.00;;;;;;;-3.38;86.01;102049.36;108019;1254;61109;-75
2024/01/29 06:12:47;;;;;;;44.30;24.00;;;;;;;-3.25;85.35;102058.00;107999;1259;58815;-76
2024/01/29 06:15:15;;;;;;;49.50;25.80;;;;;;;-3.19;85.49;102066.58;106297;1259;71290;-75
2024/01/29 06:17:42;;;;;;;47.30;27.10;;;;;;;-3.20;85.19;102064.69;105910;1254;69174;-75
2024/01/29 06:20:11;;;;;;;49.80;29.60;;;;;;;-3.27;84.98;102064.62;105889;1254;72092;-74
2024/01/29 06:22:46;;;;;;;56.90;32.20;;;;;;;-3.38;84.73;102073.44;105851;1254;60639;-76
2024/01/29 06:25:13;;;;;;;53.00;29.70;;;;;;;-3.44;85.25;102079.92;105907;1254;60386;-75
2024/01/29 06:27:41;;;;;;;52.60;28.60;;;;;;;-3.45;85.28;102079.44;105639;1259;73839;-75
2024/01/29 06:30:09;;;;;;;50.60;28.60;;;;;;;-3.44;84.82;102080.45;105762;1260;69950;-75
2024/01/29 06:32:37;;;;;;;57.20;29.60;;;;;;;-3.39;84.73;102081.25;105796;1254;71433;-75
2024/01/29 06:35:05;;;;;;;59.60;30.90;;;;;;;-3.38;85.07;102076.72;105741;1260;60422;-75
2024/01/29 06:37:33;;;;;;;60.00;31.70;;;;;;;-3.35;85.71;102071.48;105773;1254;60546;-78
2024/01/29 06:40:01;;;;;;;55.60;30.40;;;;;;;-3.28;86.30;102073.30;105923;1254;73855;-75
2024/01/29 06:42:28;;;;;;;49.40;27.80;;;;;;;-3.22;86.46;102081.00;105780;1259;68738;-74
2024/01/29 06:44:56;;;;;;;49.80;27.20;;;;;;;-3.20;86.23;102088.08;105799;1254;71406;-74
2024/01/29 06:47:23;;;;;;;46.00;25.30;;;;;;;-3.17;86.53;102092.02;105765;1255;61110;-75
2024/01/29 06:49:51;;;;;;;38.70;21.30;;;;;;;-3.02;86.41;102089.55;105761;1259;60501;-74
2024/01/29 06:52:18;;;;;;;35.70;19.00;;;;;;;-2.85;86.03;102086.51;105777;1254;73772;-73
2024/01/29 06:54:46;;;;;;;31.10;18.20;;;;;;;-2.79;86.13;102085.02;105986;1257;68408;-74
2024/01/29 06:57:13;;;;;;;30.30;18.70;;;;;;;-2.74;86.12;102084.08;105848;1259;72472;-74
2024/01/29 06:59:41;;;;;;;22.30;13.50;;;;;;;-2.73;85.34;102086.15;105746;1259;60562;-74
2024/01/29 07:02:09;;;;;;;36.30;20.70;;;;;;;-2.75;84.63;102093.29;105950;1256;60447;-73
2024/01/29 07:04:36;;;;;;;28.90;17.30;;;;;;;-2.78;84.29;102091.42;105867;1260;74239;-74
2024/01/29 07:07:05;;;;;;;24.30;15.50;;;;;;;-2.75;84.52;102090.15;106157;1257;69464;-74
2024/01/29 07:09:32;;;;;;;33.80;20.00;;;;;;;-2.59;84.39;102091.11;108241;1254;72899;-74
2024/01/29 07:12:00;;;;;;;33.80;19.20;;;;;;;-2.40;84.11;102091.12;108595;1254;59257;-73
2024/01/29 07:14:27;;;;;;;35.20;21.30;;;;;;;-2.27;84.11;102090.90;106667;1257;60531;-75
2024/01/29 07:16:55;;;;;;;42.70;24.80;;;;;;;-2.20;83.87;102095.09;105910;1258;74837;-74
2024/01/29 07:19:26;;;;;;;40.60;24.00;;;;;;;-2.13;83.99;102092.70;105985;1257;68880;-74
2024/01/29 07:21:57;;;;;;;33.50;20.20;;;;;;;-2.06;83.95;102099.85;105983;1257;72472;-74
2024/01/29 07:24:24;;;;;;;28.30;18.40;;;;;;;-2.01;83.72;102099.26;106143;1255;60438;-74
2024/01/29 07:26:52;;;;;;;26.20;16.40;;;;;;;-1.98;83.07;102100.41;105900;1260;60463;-74
2024/01/29 07:29:19;;;;;;;24.40;16.10;;;;;;;-1.89;82.54;102101.97;105992;1259;74306;-74
2024/01/29 07:31:47;;;;;;;25.20;15.90;;;;;;;-1.75;82.04;102097.17;106053;1260;69217;-74
2024/01/29 07:34:14;;;;;;;27.90;19.00;;;;;;;-1.70;81.48;102098.30;105948;1260;71276;-74
2024/01/29 07:36:42;;;;;;;33.50;21.60;;;;;;;-1.68;81.56;102100.33;105876;1257;60587;-75
2024/01/29 07:39:12;;;;;;;31.10;20.80;;;;;;;-1.62;81.36;102104.73;105835;1258;60543;-74
2024/01/29 07:41:40;;;;;;;38.50;24.90;;;;;;;-1.61;81.00;102097.77;105776;1259;72647;-74
2024/01/29 07:44:08;;;;;;;39.70;24.30;;;;;;;-1.59;80.83;102096.83;105829;1254;70339;-74
2024/01/29 07:46:35;;;;;;;37.40;24.30;;;;;;;-1.55;80.73;102095.73;105861;1259;71351;-74
2024/01/29 07:49:06;;;;;;;38.80;24.90;;;;;;;-1.53;80.23;102095.16;106005;1259;60492;-74
2024/01/29 07:51:34;;;;;;;39.70;25.40;;;;;;;-1.54;79.85;102098.15;106541;1260;60430;-74
2024/01/29 07:54:01;;;;;;;40.00;25.50;;;;;;;-1.53;79.59;102097.59;106774;1256;75938;-74
2024/01/29 07:56:29;;;;;;;36.50;24.20;;;;;;;-1.40;79.38;102099.73;105776;1260;70087;-75
2024/01/29 07:58:56;;;;;;;39.50;24.90;;;;;;;-1.24;79.09;102098.34;105906;1257;74402;-75
2024/01/29 08:01:24;;;;;;;35.20;24.70;;;;;;;-1.13;79.24;102103.66;105896;1267;60552;-75
2024/01/29 08:03:51;;;;;;;41.40;27.00;;;;;;;-1.05;79.47;102109.90;105990;1254;62408;-76
2024/01/29 08:06:19;;;;;;;32.10;21.90;;;;;;;-0.96;79.39;102107.80;106173;1255;76116;-75
2024/01/29 08:08:47;;;;;;;34.30;24.10;;;;;;;-0.89;79.13;102115.62;108473;1254;71048;-74
2024/01/29 08:11:14;;;;;;;32.80;23.00;;;;;;;-0.82;78.74;102119.98;108756;1254;71210;-76
2024/01/29 08:13:42;;;;;;;29.50;21.70;;;;;;;-0.74;78.38;102122.04;106934;1256;60434;-77
2024/01/29 08:16:09;;;;;;;32.40;22.90;;;;;;;-0.68;77.56;102122.77;106343;1260;60441;-77
2024/01/29 08:18:37;;;;;;;30.70;23.70;;;;;;;-0.62;77.58;102123.33;106804;1258;73204;-77
2024/01/29 08:21:05;;;;;;;30.50;22.30;;;;;;;-0.55;77.43;102122.65;106755;1259;70725;-77
2024/01/29 08:23:32;;;;;;;32.10;23.00;;;;;;;-0.52;77.19;102125.34;106129;1253;72787;-76
2024/01/29 08:26:00;;;;;;;26.30;18.30;;;;;;;-0.48;77.11;102120.73;106266;1256;60521;-77
2024/01/29 08:28:27;;;;;;;23.90;15.90;;;;;;;-0.42;76.62;102119.70;106156;1253;60594;-77
2024/01/29 08:30:58;;;;;;;21.30;14.00;;;;;;;-0.27;76.26;102118.79;106095;1256;73908;-80
2024/01/29 08:33:29;;;;;;;20.40;12.70;;;;;;;-0.13;75.76;102118.77;106012;1254;70535;-80
2024/01/29 08:35:57;;;;;;;17.90;12.80;;;;;;;-0.09;75.20;102123.89;105946;1260;71179;-80
2024/01/29 08:38:25;;;;;;;22.20;14.10;;;;;;;-0.09;74.04;102128.77;105959;1259;60626;-78
2024/01/29 08:40:54;;;;;;;24.80;15.30;;;;;;;-0.11;74.22;102129.35;105808;1259;60322;-77
2024/01/29 08:43:23;;;;;;;23.20;15.60;;;;;;;-0.07;74.93;102132.01;106027;1257;72584;-78
2024/01/29 08:45:51;;;;;;;23.40;14.10;;;;;;;0.03;75.16;102134.39;106087;1266;69019;-80
2024/01/29 08:48:18;;;;;;;18.10;14.00;;;;;;;0.12;75.09;102136.55;106132;1257;74716;-81
2024/01/29 08:50:46;;;;;;;21.40;15.80;;;;;;;0.23;75.71;102132.95;105903;1253;60880;-80
2024/01/29 08:53:14;;;;;;;18.50;13.90;;;;;;;0.35;75.71;102132.77;107220;1259;60470;-81
2024/01/29 08:55:45;;;;;;;18.20;13.50;;;;;;;0.47;74.37;102130.70;106403;1254;74814;-79
2024/01/29 08:58:14;;;;;;;17.90;11.80;;;;;;;0.65;74.29;102134.89;106238;1255;72440;-81
2024/01/29 09:00:42;;;;;;;15.90;12.50;;;;;;;0.87;73.99;102140.15;106205;1254;72458;-81
2024/01/29 09:03:10;;;;;;;19.20;12.60;;;;;;;0.99;74.35;102142.39;106477;1255;60432;-83
2024/01/29 09:05:38;;;;;;;19.60;13.20;;;;;;;1.14;75.01;102145.95;106838;1254;60451;-83
2024/01/29 09:08:06;;;;;;;20.20;13.30;;;;;;;1.28;74.74;102146.36;109281;1253;72731;-82
2024/01/29 09:10:48;;;;;;;19.90;14.10;;;;;;;1.51;74.28;102142.47;108947;1254;68767;-80
2024/01/29 09:13:16;;;;;;;18.70;13.00;;;;;;;1.74;73.60;102144.83;106807;1257;72876;-82
2024/01/29 09:15:43;;;;;;;19.40;13.20;;;;;;;2.01;72.86;102144.95;106965;1262;60901;-82
2024/01/29 09:18:11;;;;;;;16.00;11.80;;;;;;;2.30;72.65;102146.03;106359;1261;60495;-83
2024/01/29 09:20:39;;;;;;;18.10;12.40;;;;;;;2.64;71.37;102146.17;106067;1254;74691;-82
2024/01/29 09:23:07;;;;;;;17.90;12.80;;;;;;;3.01;70.11;102146.87;107263;1254;69624;-82
2024/01/29 09:25:35;;;;;;;16.30;12.70;;;;;;;3.47;68.99;102136.41;107157;1260;74526;-82
2024/01/29 09:28:05;;;;;;;19.00;14.70;;;;;;;4.01;67.42;102138.86;106204;1259;59446;-84
2024/01/29 09:30:35;;;;;;;17.90;14.40;;;;;;;4.64;67.49;102133.92;108739;1254;60607;-84
2024/01/29 09:33:09;;;;;;;18.30;14.00;;;;;;;5.41;66.06;102127.25;109121;1254;72771;-83
2024/01/29 09:35:52;;;;;;;16.50;13.00;;;;;;;6.20;62.46;102125.69;109102;1257;70784;-84
2024/01/29 09:38:19;;;;;;;17.10;12.80;;;;;;;6.86;60.74;102123.91;107168;1259;71387;-82
2024/01/29 09:40:47;;;;;;;16.90;12.90;;;;;;;7.43;58.59;102126.63;107026;1254;60430;-82
2024/01/29 09:43:16;;;;;;;15.20;12.30;;;;;;;7.81;57.13;102125.83;106248;1259;149738;-83
2024/01/29 09:47:52;;;;;;;16.60;12.50;;;;;;;8.46;53.28;102134.58;103358;1295;600324;-81
2024/01/29 09:50:22;;;;;;;14.80;12.10;;;;;;;8.77;53.26;102132.31;107094;1267;60169;-81
2024/01/29 09:52:51;;;;;;;15.40;13.00;;;;;;;9.21;52.04;102133.50;107567;1261;59371;-81
2024/01/29 09:55:23;;;;;;;15.80;14.00;;;;;;;9.74;51.94;102133.55;107142;1263;70042;-82
2024/01/29 09:57:51;;;;;;;17.40;14.30;;;;;;;10.43;50.73;102128.80;106269;1260;69502;-84
2024/01/29 10:00:19;;;;;;;15.70;13.60;;;;;;;10.96;48.30;102127.11;106028;1261;123728;-80
2024/01/29 10:02:47;;;;;;;18.20;13.80;;;;;;;11.33;46.30;102129.21;106381;1262;59191;-83
2024/01/29 10:05:17;;;;;;;22.40;15.10;;;;;;;11.58;46.51;102132.10;107128;1257;60394;-82
2024/01/29 10:07:45;;;;;;;21.20;16.00;;;;;;;11.97;45.70;102130.37;108867;1262;72828;-84
2024/01/29 10:10:13;;;;;;;22.20;15.00;;;;;;;12.35;45.19;102126.36;108542;1258;69645;-84
2024/01/29 10:12:41;;;;;;;17.90;14.60;;;;;;;12.76;45.20;102126.66;106837;1263;73834;-82
2024/01/29 10:15:10;;;;;;;17.20;14.70;;;;;;;13.26;44.46;102128.23;106420;1258;60114;-82
2024/01/29 10:17:37;;;;;;;19.40;14.70;;;;;;;13.77;43.31;102124.02;106084;1264;60948;-81
2024/01/29 10:20:19;;;;;;;20.20;14.90;;;;;;;13.94;41.92;102122.23;106722;1261;73114;-81
2024/01/29 10:22:48;;;;;;;18.70;15.10;;;;;;;13.68;41.55;102120.16;106118;1263;70263;-80
2024/01/29 10:25:16;;;;;;;20.10;15.60;;;;;;;13.52;42.17;102120.58;105659;1263;71844;-80
2024/01/29 10:27:45;;;;;;;19.10;14.50;;;;;;;13.22;40.76;102124.73;106030;1257;61420;-81
2024/01/29 10:30:14;;;;;;;20.30;16.10;;;;;;;12.24;40.25;102123.98;105919;1264;62196;-79
2024/01/29 10:32:41;;;;;;;21.70;16.50;;;;;;;11.09;41.29;102127.23;105847;1263;71784;-78
2024/01/29 10:35:09;;;;;;;20.70;16.80;;;;;;;10.11;42.67;102127.46;105703;1263;70263;-76
2024/01/29 10:37:37;;;;;;;22.90;15.40;;;;;;;9.28;43.14;102130.61;105738;1262;71685;-77
2024/01/29 10:40:06;;;;;;;20.20;15.90;;;;;;;8.43;43.80;102133.89;105737;1263;59840;-77
2024/01/29 10:42:35;;;;;;;20.30;15.60;;;;;;;7.55;45.15;102132.98;105899;1257;60200;-76
2024/01/29 10:45:02;;;;;;;20.70;14.90;;;;;;;6.94;46.62;102137.68;105992;1256;73072;-76
2024/01/29 10:47:35;;;;;;;24.30;16.30;;;;;;;6.48;47.41;102141.65;106653;1261;69007;-78
2024/01/29 10:50:03;;;;;;;20.20;16.10;;;;;;;6.20;48.15;102145.41;105915;1262;72724;-78
2024/01/29 10:52:31;;;;;;;21.00;16.10;;;;;;;6.65;50.01;102146.36;105779;1260;59802;-80
2024/01/29 10:54:59;;;;;;;19.20;14.80;;;;;;;7.66;49.43;102147.13;105982;1258;62364;-80
2024/01/29 10:57:27;;;;;;;19.40;15.30;;;;;;;8.74;47.13;102138.64;105863;1262;74132;-80
2024/01/29 10:59:54;;;;;;;18.70;14.50;;;;;;;9.71;46.26;102142.23;106269;1261;69485;-78
2024/01/29 11:02:22;;;;;;;19.30;14.50;;;;;;;10.54;44.25;102136.53;106826;1264;71093;-81
2024/01/29 11:04:51;;;;;;;18.60;14.30;;;;;;;11.27;44.00;102132.96;108066;1257;59444;-81
2024/01/29 11:07:27;;;;;;;13.70;12.00;;;;;;;12.10;41.66;102131.33;108901;1256;59563;-80
2024/01/29 11:10:03;;;;;;;14.40;12.60;;;;;;;12.55;37.97;102123.68;108659;1257;74025;-82